createdAt,value
2022-12-29T00:00:13.977Z,8.65
2022-12-29T00:02:41.560Z,9.75
2022-12-29T00:05:08.696Z,9.32
2022-12-29T00:07:35.665Z,8.95
2022-12-29T00:10:02.506Z,9.13
2022-12-29T00:12:49.318Z,8.30
2022-12-29T00:15:35.129Z,8.15
2022-12-29T00:18:02.301Z,8.07
2022-12-29T00:20:47.955Z,8.93
2022-12-29T00:23:33.313Z,8.00
2022-12-29T00:26:23.211Z,9.15
2022-12-29T00:29:09.782Z,8.05
2022-12-29T00:31:55.164Z,8.65
2022-12-29T00:34:40.394Z,8.40
2022-12-29T00:37:07.287Z,8.30
2022-12-29T00:39:53.156Z,8.13
2022-12-29T00:42:38.347Z,8.43
2022-12-29T00:45:05.873Z,8.43
2022-12-29T00:47:32.660Z,7.93
2022-12-29T00:49:59.558Z,8.02
2022-12-29T00:52:27.707Z,7.18
2022-12-29T00:54:54.482Z,7.00
2022-12-29T00:57:21.293Z,6.63
2022-12-29T00:59:48.224Z,7.57
2022-12-29T01:02:16.617Z,8.07
2022-12-29T01:04:43.665Z,7.60
2022-12-29T01:07:10.445Z,7.68
2022-12-29T01:09:56.331Z,7.75
2022-12-29T01:12:41.619Z,6.90
2022-12-29T01:15:12.699Z,7.78
2022-12-29T01:17:39.615Z,8.07
2022-12-29T01:20:07.435Z,7.38
2022-12-29T01:22:35.569Z,8.38
2022-12-29T01:25:02.345Z,8.02
2022-12-29T01:27:29.240Z,8.90
2022-12-29T01:29:56.099Z,8.90
2022-12-29T01:32:23.339Z,7.88
2022-12-29T01:34:50.344Z,8.57
2022-12-29T01:37:17.314Z,7.95
2022-12-29T01:39:45.123Z,8.77
2022-12-29T01:42:18.733Z,8.85
2022-12-29T01:44:52.677Z,8.85
2022-12-29T01:47:27.596Z,8.25
2022-12-29T01:49:56.613Z,8.98
2022-12-29T01:52:25.286Z,9.00
2022-12-29T01:54:56.276Z,8.73
2022-12-29T01:57:30.744Z,9.13
2022-12-29T02:00:16.400Z,8.30
2022-12-29T02:02:51.834Z,9.45
2022-12-29T02:05:41.163Z,8.25
2022-12-29T02:08:10.152Z,9.30
2022-12-29T02:10:37.765Z,8.98
2022-12-29T02:13:04.731Z,8.75
2022-12-29T02:15:59.821Z,9.57
2022-12-29T02:18:44.619Z,8.57
2022-12-29T02:21:30.682Z,9.25
2022-12-29T02:24:41.086Z,8.80
2022-12-29T02:27:12.194Z,9.60
2022-12-29T02:29:54.235Z,10.50
2022-12-29T02:32:44.481Z,10.73
2022-12-29T02:35:45.476Z,11.52
2022-12-29T02:38:34.234Z,12.30
2022-12-29T02:41:27.810Z,10.80
2022-12-29T02:44:11.562Z,11.80
2022-12-29T02:46:55.600Z,12.07
2022-12-29T02:50:00.606Z,11.88
2022-12-29T02:52:43.734Z,11.13
2022-12-29T02:55:12.668Z,11.25
2022-12-29T02:57:39.431Z,11.80
2022-12-29T03:00:18.249Z,12.23
2022-12-29T03:03:03.993Z,11.73
2022-12-29T03:06:06.156Z,12.40
2022-12-29T03:08:49.543Z,10.80
2022-12-29T03:11:36.518Z,11.07
2022-12-29T03:14:32.949Z,12.20
2022-12-29T03:17:17.396Z,12.13
2022-12-29T03:19:51.597Z,11.60
2022-12-29T03:22:28.573Z,11.70
2022-12-29T03:25:22.633Z,12.15
2022-12-29T03:27:58.313Z,12.82
2022-12-29T03:30:30.535Z,11.45
2022-12-29T03:33:03.489Z,10.63
2022-12-29T03:35:35.842Z,11.98
2022-12-29T03:38:19.755Z,11.82
2022-12-29T03:40:51.261Z,11.00
2022-12-29T03:43:19.025Z,10.48
2022-12-29T03:45:47.248Z,10.63
2022-12-29T03:48:14.198Z,11.57
2022-12-29T03:50:41.785Z,10.77
2022-12-29T03:53:08.537Z,12.50
2022-12-29T03:55:35.471Z,11.90
2022-12-29T03:58:02.814Z,11.63
2022-12-29T04:00:50.642Z,12.77
2022-12-29T04:03:18.114Z,12.55
2022-12-29T04:05:45.387Z,12.10
2022-12-29T04:08:12.585Z,12.27
2022-12-29T04:10:39.628Z,13.10
2022-12-29T04:13:07.544Z,12.70
2022-12-29T04:15:35.650Z,13.40
2022-12-29T04:18:02.685Z,12.73
2022-12-29T04:20:48.012Z,12.18
2022-12-29T04:23:15.000Z,13.43
2022-12-29T04:25:42.132Z,12.63
2022-12-29T04:28:10.138Z,12.55
2022-12-29T04:30:54.989Z,13.15
2022-12-29T04:33:26.390Z,12.48
2022-12-29T04:35:55.033Z,12.63
2022-12-29T04:38:24.548Z,12.43
2022-12-29T04:40:52.419Z,12.75
2022-12-29T04:43:23.259Z,12.80
2022-12-29T04:46:19.579Z,12.68
2022-12-29T04:48:54.394Z,12.02
2022-12-29T04:51:39.714Z,13.13
2022-12-29T04:54:09.470Z,12.85
2022-12-29T04:56:37.195Z,13.23
2022-12-29T04:59:04.054Z,11.95
2022-12-29T05:01:30.973Z,13.43
2022-12-29T05:03:58.533Z,12.88
2022-12-29T05:06:25.821Z,12.30
2022-12-29T05:08:52.540Z,12.05
2022-12-29T05:11:20.391Z,13.50
2022-12-29T05:13:49.417Z,12.07
2022-12-29T05:16:17.766Z,12.20
2022-12-29T05:18:45.520Z,12.90
2022-12-29T05:21:12.376Z,12.35
2022-12-29T05:23:41.224Z,11.82
2022-12-29T05:26:08.220Z,12.05
2022-12-29T05:28:57.707Z,11.93
2022-12-29T05:31:24.685Z,11.85
2022-12-29T05:33:51.548Z,12.43
2022-12-29T05:36:19.156Z,12.00
2022-12-29T05:38:49.961Z,12.23
2022-12-29T05:41:18.350Z,12.05
2022-12-29T05:44:00.491Z,12.07
2022-12-29T05:46:45.802Z,11.13
2022-12-29T05:49:19.349Z,10.93
2022-12-29T05:51:59.077Z,12.38
2022-12-29T05:54:25.935Z,11.90
2022-12-29T05:56:52.740Z,11.43
2022-12-29T05:59:20.973Z,12.63
2022-12-29T06:01:48.637Z,12.27
2022-12-29T06:04:15.676Z,12.68
2022-12-29T06:06:42.708Z,12.32
2022-12-29T06:09:16.597Z,13.55
2022-12-29T06:11:44.011Z,12.50
2022-12-29T06:14:10.986Z,14.00
2022-12-29T06:16:37.884Z,13.43
2022-12-29T06:19:08.752Z,12.95
2022-12-29T06:21:36.311Z,13.70
2022-12-29T06:24:03.238Z,13.40
2022-12-29T06:26:30.871Z,13.55
2022-12-29T06:28:57.693Z,13.80
2022-12-29T06:31:24.494Z,13.80
2022-12-29T06:33:51.342Z,14.40
2022-12-29T06:36:18.169Z,13.48
2022-12-29T06:38:45.084Z,13.90
2022-12-29T06:41:12.759Z,13.35
2022-12-29T06:44:08.925Z,13.40
2022-12-29T06:46:58.514Z,12.57
2022-12-29T06:49:25.436Z,13.30
2022-12-29T06:51:52.163Z,13.63
2022-12-29T06:54:19.037Z,13.85
2022-12-29T06:56:45.867Z,15.30
2022-12-29T06:59:12.865Z,13.00
2022-12-29T07:01:39.669Z,21.65
2022-12-29T07:04:06.604Z,50.10
2022-12-29T07:06:33.936Z,19.60
2022-12-29T07:09:01.003Z,26.08
2022-12-29T07:11:27.725Z,17.23
2022-12-29T07:13:54.473Z,15.05
2022-12-29T07:16:21.415Z,16.35
2022-12-29T07:18:48.248Z,12.90
2022-12-29T07:21:15.212Z,12.60
2022-12-29T07:23:42.018Z,13.55
2022-12-29T07:26:12.673Z,14.20
2022-12-29T07:28:39.823Z,13.43
2022-12-29T07:31:24.809Z,12.77
2022-12-29T07:33:51.625Z,13.05
2022-12-29T07:36:18.529Z,12.88
2022-12-29T07:38:45.413Z,13.38
2022-12-29T07:41:12.293Z,13.43
2022-12-29T07:43:39.292Z,13.20
2022-12-29T07:46:55.335Z,12.73
2022-12-29T07:49:22.059Z,13.32
2022-12-29T07:51:48.840Z,14.27
2022-12-29T07:54:19.369Z,13.02
2022-12-29T07:56:46.794Z,13.80
2022-12-29T07:59:13.597Z,13.88
2022-12-29T08:01:40.582Z,14.48
2022-12-29T08:04:07.658Z,13.98
2022-12-29T08:06:34.557Z,14.10
2022-12-29T08:09:09.809Z,12.85
2022-12-29T08:11:41.336Z,13.07
2022-12-29T08:14:08.345Z,13.20
2022-12-29T08:16:35.402Z,13.10
2022-12-29T08:19:02.810Z,12.50
2022-12-29T08:21:29.863Z,12.90
2022-12-29T08:23:57.103Z,12.25
2022-12-29T08:26:24.209Z,13.48
2022-12-29T08:28:53.696Z,13.27
2022-12-29T08:31:20.891Z,13.05
2022-12-29T08:33:47.823Z,12.93
2022-12-29T08:36:14.802Z,13.30
2022-12-29T08:38:41.712Z,12.80
2022-12-29T08:41:08.551Z,12.77
2022-12-29T08:43:35.277Z,12.40
2022-12-29T08:46:02.208Z,13.27
2022-12-29T08:48:29.098Z,12.57
2022-12-29T08:50:56.162Z,12.55
2022-12-29T08:53:22.990Z,11.82
2022-12-29T08:56:03.971Z,13.30
2022-12-29T08:58:35.775Z,12.93
2022-12-29T09:01:02.938Z,13.20
2022-12-29T09:04:04.492Z,13.23
2022-12-29T09:06:17.873Z,12.18
2022-12-29T09:08:45.452Z,11.82
2022-12-29T09:11:14.513Z,12.70
2022-12-29T09:13:41.278Z,12.27
2022-12-29T09:16:08.393Z,12.20
2022-12-29T09:18:35.583Z,12.63
2022-12-29T09:21:04.853Z,12.00
2022-12-29T09:23:32.732Z,12.90
2022-12-29T09:25:59.511Z,11.60
2022-12-29T09:28:26.303Z,12.40
2022-12-29T09:30:53.619Z,13.45
2022-12-29T09:33:20.369Z,14.25
2022-12-29T09:35:52.860Z,15.55
2022-12-29T09:38:19.634Z,14.80
2022-12-29T09:40:52.987Z,14.10
2022-12-29T09:43:53.862Z,13.45
2022-12-29T09:46:37.331Z,14.05
2022-12-29T09:49:35.253Z,15.88
2022-12-29T09:52:12.299Z,16.25
2022-12-29T09:54:53.710Z,14.93
2022-12-29T09:57:28.662Z,16.67
2022-12-29T10:00:05.712Z,17.73
2022-12-29T10:02:45.258Z,17.48
2022-12-29T10:06:00.500Z,16.88
2022-12-29T10:08:38.875Z,17.05
2022-12-29T10:11:21.020Z,17.42
2022-12-29T10:14:10.882Z,17.50
2022-12-29T10:17:25.388Z,16.98
2022-12-29T10:20:06.749Z,16.55
2022-12-29T10:22:49.244Z,19.35
2022-12-29T10:25:21.971Z,19.85
2022-12-29T10:27:51.045Z,18.58
2022-12-29T10:30:19.294Z,18.35
2022-12-29T10:32:59.568Z,19.52
2022-12-29T10:35:41.467Z,18.65
2022-12-29T10:38:26.538Z,18.52
2022-12-29T10:41:12.915Z,18.23
2022-12-29T10:43:46.664Z,17.83
2022-12-29T10:46:35.597Z,18.80
2022-12-29T10:49:03.011Z,17.93
2022-12-29T10:51:35.517Z,17.70
2022-12-29T10:54:06.955Z,18.35
2022-12-29T10:56:36.764Z,16.80
2022-12-29T10:59:21.693Z,16.98
2022-12-29T11:02:02.823Z,17.20
2022-12-29T11:04:56.587Z,15.55
2022-12-29T11:07:27.256Z,16.02
2022-12-29T11:09:55.264Z,15.30
2022-12-29T11:12:32.163Z,14.85
2022-12-29T11:15:10.938Z,15.15
2022-12-29T11:17:53.549Z,15.02
2022-12-29T11:20:40.420Z,15.40
2022-12-29T11:23:22.524Z,14.25
2022-12-29T11:26:31.734Z,17.35
2022-12-29T11:29:09.892Z,16.92
2022-12-29T11:31:44.933Z,14.00
2022-12-29T11:34:19.520Z,14.75
2022-12-29T11:36:47.635Z,13.63
2022-12-29T11:39:35.187Z,13.00
2022-12-29T11:42:04.032Z,13.02
2022-12-29T11:44:38.345Z,13.27
2022-12-29T11:47:09.017Z,12.32
2022-12-29T11:49:35.961Z,14.10
2022-12-29T11:52:02.829Z,12.50
2022-12-29T11:54:37.237Z,12.82
2022-12-29T11:57:19.465Z,13.30
2022-12-29T11:59:52.255Z,13.75
2022-12-29T12:02:22.416Z,13.15
2022-12-29T12:04:54.076Z,13.45
2022-12-29T12:07:43.906Z,14.13
2022-12-29T12:13:18.375Z,13.75
2022-12-29T12:15:56.197Z,14.48
2022-12-29T12:18:38.547Z,14.63
2022-12-29T12:21:14.048Z,14.32
2022-12-29T12:24:05.202Z,14.63
2022-12-29T12:26:45.009Z,14.60
2022-12-29T12:29:19.630Z,14.98
2022-12-29T12:32:00.745Z,13.05
2022-12-29T12:34:34.938Z,13.57
2022-12-29T12:37:16.530Z,14.13
2022-12-29T12:40:14.741Z,14.00
2022-12-29T12:43:04.307Z,14.90
2022-12-29T12:46:20.743Z,14.63
2022-12-29T12:49:27.853Z,13.98
2022-12-29T12:52:40.450Z,15.05
2022-12-29T12:55:10.382Z,15.73
2022-12-29T12:58:01.897Z,17.27
2022-12-29T13:00:33.994Z,18.33
2022-12-29T13:03:06.660Z,18.83
2022-12-29T13:06:03.337Z,16.98
2022-12-29T13:08:50.197Z,15.80
2022-12-29T13:11:34.335Z,15.70
2022-12-29T13:14:19.498Z,15.73
2022-12-29T13:17:24.299Z,16.17
2022-12-29T13:19:54.152Z,16.67
2022-12-29T13:22:39.221Z,16.75
2022-12-29T13:25:18.292Z,15.90
2022-12-29T13:27:54.060Z,16.17
2022-12-29T13:30:23.945Z,16.42
2022-12-29T13:32:57.860Z,16.33
2022-12-29T13:35:34.042Z,15.98
2022-12-29T13:38:14.777Z,16.98
2022-12-29T13:40:48.194Z,15.85
2022-12-29T13:43:17.250Z,16.02
2022-12-29T13:45:46.340Z,16.20
2022-12-29T13:48:18.579Z,16.30
2022-12-29T13:50:53.430Z,16.08
2022-12-29T13:53:32.309Z,15.75
2022-12-29T13:56:08.848Z,16.38
2022-12-29T13:58:45.773Z,15.68
2022-12-29T14:01:21.403Z,15.85
2022-12-29T14:03:57.365Z,16.83
2022-12-29T14:06:30.441Z,15.18
2022-12-29T14:08:57.239Z,16.08
2022-12-29T14:11:32.144Z,14.82
2022-12-29T14:14:00.596Z,15.20
2022-12-29T14:16:35.833Z,15.85
2022-12-29T14:19:16.665Z,16.60
2022-12-29T14:21:53.848Z,15.98
2022-12-29T14:24:33.761Z,17.17
2022-12-29T14:27:00.594Z,17.67
2022-12-29T14:29:30.322Z,17.60
2022-12-29T14:31:57.307Z,18.00
2022-12-29T14:34:29.933Z,18.88
2022-12-29T14:37:00.405Z,17.02
2022-12-29T14:39:39.279Z,17.88
2022-12-29T14:42:11.856Z,17.30
2022-12-29T14:45:01.444Z,19.40
2022-12-29T14:47:31.445Z,19.10
2022-12-29T14:50:09.337Z,19.10
2022-12-29T14:53:06.002Z,18.83
2022-12-29T14:55:50.832Z,18.40
2022-12-29T14:58:23.326Z,17.45
2022-12-29T15:00:50.825Z,17.08
2022-12-29T15:03:33.974Z,15.68
2022-12-29T15:06:12.470Z,16.45
2022-12-29T15:08:58.077Z,16.40
2022-12-29T15:11:45.796Z,17.75
2022-12-29T15:14:35.792Z,17.33
2022-12-29T15:19:30.034Z,16.48
2022-12-29T15:21:57.881Z,17.55
2022-12-29T15:24:25.597Z,18.80
2022-12-29T15:26:55.260Z,18.90
2022-12-29T15:29:38.179Z,25.25
2022-12-29T15:32:40.511Z,29.02
2022-12-29T15:35:31.534Z,23.23
2022-12-29T15:37:59.986Z,22.05
2022-12-29T15:40:31.255Z,22.33
2022-12-29T15:43:07.655Z,23.00
2022-12-29T15:45:36.489Z,23.30
2022-12-29T15:48:05.643Z,22.45
2022-12-29T15:50:35.193Z,21.70
2022-12-29T15:53:03.105Z,21.48
2022-12-29T15:55:39.228Z,21.33
2022-12-29T15:58:18.584Z,21.60
2022-12-29T16:00:50.170Z,20.83
2022-12-29T16:03:17.782Z,19.77
2022-12-29T16:05:52.368Z,18.85
2022-12-29T16:08:38.140Z,20.17
2022-12-29T16:11:37.484Z,21.52
2022-12-29T16:14:10.605Z,21.88
2022-12-29T16:16:40.882Z,21.80
2022-12-29T16:19:22.633Z,20.98
2022-12-29T16:21:49.899Z,22.73
2022-12-29T16:24:19.949Z,23.35
2022-12-29T16:29:20.438Z,23.30
2022-12-29T16:32:01.578Z,25.65
2022-12-29T16:34:41.005Z,25.83
2022-12-29T16:37:26.463Z,24.27
2022-12-29T16:39:53.269Z,23.45
2022-12-29T16:42:47.138Z,23.70
2022-12-29T16:45:22.275Z,23.30
2022-12-29T16:48:07.322Z,23.67
2022-12-29T16:50:36.099Z,23.88
2022-12-29T16:53:04.553Z,22.85
2022-12-29T16:55:31.950Z,23.10
2022-12-29T16:58:00.153Z,24.02
2022-12-29T17:00:30.086Z,22.95
2022-12-29T17:03:00.690Z,26.52
2022-12-29T17:05:27.528Z,25.30
2022-12-29T17:07:54.338Z,24.75
2022-12-29T17:10:21.067Z,23.83
2022-12-29T17:12:49.745Z,25.13
2022-12-29T17:15:27.180Z,24.60
2022-12-29T17:17:56.914Z,24.40
2022-12-29T17:20:29.651Z,24.13
2022-12-29T17:22:57.755Z,25.60
2022-12-29T17:25:34.927Z,24.50
2022-12-29T17:28:05.526Z,25.35
2022-12-29T17:30:34.967Z,26.23
2022-12-29T17:33:08.825Z,25.55
2022-12-29T17:35:35.903Z,25.08
2022-12-29T17:38:02.728Z,26.52
2022-12-29T17:40:32.656Z,25.58
2022-12-29T17:43:01.049Z,26.63
2022-12-29T17:45:30.555Z,26.92
2022-12-29T17:48:02.056Z,29.20
2022-12-29T17:50:30.778Z,27.10
2022-12-29T17:53:11.855Z,28.88
2022-12-29T17:55:38.938Z,29.42
2022-12-29T17:58:27.839Z,28.73
2022-12-29T18:00:57.555Z,28.83
2022-12-29T18:03:30.868Z,28.92
2022-12-29T18:05:58.252Z,28.98
2022-12-29T18:08:25.613Z,28.80
2022-12-29T18:10:55.271Z,29.75
2022-12-29T18:13:24.204Z,27.80
2022-12-29T18:15:51.990Z,28.55
2022-12-29T18:18:21.472Z,28.80
2022-12-29T18:20:50.816Z,28.98
2022-12-29T18:23:21.800Z,30.98
2022-12-29T18:26:02.348Z,31.20
2022-12-29T18:28:29.594Z,31.50
2022-12-29T18:30:59.090Z,31.40
2022-12-29T18:33:26.887Z,31.55
2022-12-29T18:35:59.692Z,31.60
2022-12-29T18:38:27.377Z,32.08
2022-12-29T18:40:54.475Z,30.17
2022-12-29T18:43:21.635Z,33.00
2022-12-29T18:45:49.271Z,33.42
2022-12-29T18:48:17.612Z,33.33
2022-12-29T18:50:45.338Z,35.08
2022-12-29T18:53:16.915Z,34.40
2022-12-29T18:55:43.780Z,33.90
2022-12-29T18:58:10.528Z,33.72
2022-12-29T19:00:37.539Z,34.95
2022-12-29T19:03:04.658Z,34.13
2022-12-29T19:05:37.681Z,33.35
2022-12-29T19:08:05.163Z,35.33
2022-12-29T19:10:32.169Z,34.97
2022-12-29T19:12:59.283Z,33.65
2022-12-29T19:15:31.675Z,35.58
2022-12-29T19:18:41.564Z,33.30
2022-12-29T19:20:50.524Z,35.22
2022-12-29T19:23:20.325Z,33.53
2022-12-29T19:25:47.705Z,34.33
2022-12-29T19:28:24.453Z,34.60
2022-12-29T19:30:52.972Z,35.88
2022-12-29T19:33:23.529Z,36.97
2022-12-29T19:35:51.388Z,34.60
2022-12-29T19:38:18.973Z,35.33
2022-12-29T19:40:50.882Z,34.75
2022-12-29T19:43:18.805Z,34.67
2022-12-29T19:45:45.941Z,35.17
2022-12-29T19:48:15.792Z,35.53
2022-12-29T19:50:43.717Z,33.80
2022-12-29T19:53:11.009Z,33.97
2022-12-29T19:55:37.917Z,32.85
2022-12-29T19:58:04.833Z,35.05
2022-12-29T20:00:31.638Z,34.63
2022-12-29T20:02:58.645Z,36.58
2022-12-29T20:05:25.445Z,34.67
2022-12-29T20:07:52.226Z,34.90
2022-12-29T20:10:19.385Z,35.25
2022-12-29T20:12:46.183Z,35.25
2022-12-29T20:15:15.063Z,33.35
2022-12-29T20:20:28.640Z,35.05
2022-12-29T20:22:55.991Z,35.78
2022-12-29T20:28:09.643Z,36.03
2022-12-29T20:30:37.036Z,33.80
2022-12-29T20:33:07.962Z,34.60
2022-12-29T20:35:35.866Z,34.42
2022-12-29T20:38:02.610Z,37.60
2022-12-29T20:40:29.428Z,36.70
2022-12-29T20:42:56.232Z,35.67
2022-12-29T20:45:23.031Z,33.75
2022-12-29T20:47:49.727Z,35.92
2022-12-29T20:50:16.555Z,35.00
2022-12-29T20:52:43.292Z,36.65
2022-12-29T20:55:10.039Z,37.58
2022-12-29T20:58:05.659Z,36.00
2022-12-29T21:00:23.821Z,35.70
2022-12-29T21:02:52.560Z,35.78
2022-12-29T21:05:24.028Z,36.58
2022-12-29T21:07:52.424Z,36.85
2022-12-29T21:10:19.344Z,36.38
2022-12-29T21:12:46.486Z,37.55
2022-12-29T21:15:15.521Z,37.03
2022-12-29T21:17:43.892Z,37.80
2022-12-29T21:20:20.297Z,36.05
2022-12-29T21:22:48.115Z,37.15
2022-12-29T21:25:14.913Z,38.13
2022-12-29T21:27:44.599Z,37.95
2022-12-29T21:30:12.527Z,37.90
2022-12-29T21:32:40.316Z,37.33
2022-12-29T21:35:09.255Z,36.80
2022-12-29T21:37:36.616Z,39.88
2022-12-29T21:40:04.644Z,37.83
2022-12-29T21:42:31.842Z,35.22
2022-12-29T21:45:20.863Z,36.65
2022-12-29T21:48:07.705Z,36.80
2022-12-29T21:50:58.107Z,36.58
2022-12-29T21:53:37.898Z,36.75
2022-12-29T21:56:09.023Z,36.97
2022-12-29T21:58:56.448Z,36.88
2022-12-29T22:01:42.507Z,37.22
2022-12-29T22:04:31.071Z,37.17
2022-12-29T22:07:16.498Z,35.60
2022-12-29T22:10:01.926Z,35.35
2022-12-29T22:12:49.689Z,36.75
2022-12-29T22:15:17.231Z,34.28
2022-12-29T22:17:48.835Z,35.38
2022-12-29T22:20:17.465Z,36.60
2022-12-29T22:22:44.289Z,35.50
2022-12-29T22:25:13.831Z,36.00
2022-12-29T22:27:41.017Z,36.08
2022-12-29T22:30:08.720Z,35.63
2022-12-29T22:32:35.779Z,34.28
2022-12-29T22:35:07.710Z,36.42
2022-12-29T22:37:37.275Z,38.38
2022-12-29T22:40:06.107Z,37.28
2022-12-29T22:42:33.299Z,36.80
2022-12-29T22:45:00.053Z,35.97
2022-12-29T22:47:26.864Z,36.40
2022-12-29T22:49:53.670Z,37.10
2022-12-29T22:52:20.532Z,39.17
2022-12-29T22:54:47.312Z,39.83
2022-12-29T22:57:14.090Z,42.67
2022-12-29T22:59:40.768Z,43.72
2022-12-29T23:02:07.653Z,42.75
2022-12-29T23:05:02.484Z,47.35
2022-12-29T23:07:21.745Z,42.40
2022-12-29T23:09:48.538Z,46.20
2022-12-29T23:12:15.323Z,41.42
2022-12-29T23:14:42.151Z,43.55
2022-12-29T23:17:08.964Z,42.80
2022-12-29T23:19:35.720Z,42.45
2022-12-29T23:22:02.476Z,39.75
2022-12-29T23:24:29.291Z,41.08
2022-12-29T23:26:56.074Z,41.08
2022-12-29T23:29:22.876Z,43.25
2022-12-29T23:31:49.763Z,42.00
2022-12-29T23:34:17.344Z,42.90
2022-12-29T23:36:44.157Z,42.47
2022-12-29T23:39:18.582Z,44.97
2022-12-29T23:41:45.503Z,42.28
2022-12-29T23:44:12.243Z,43.83
2022-12-29T23:46:40.844Z,45.83
2022-12-29T23:49:10.681Z,43.28
2022-12-29T23:51:37.499Z,44.58
2022-12-29T23:54:04.682Z,43.00
2022-12-29T23:56:32.030Z,44.42
2022-12-29T23:58:59.154Z,43.17
